sensor_id;sensor_type;location;lat;lon;timestamp;temperature;humidity
27544;DHT22;17996;51.056;3.656;2022-10-18T00:01:33;16.80;99.90
27544;DHT22;17996;51.056;3.656;2022-10-18T00:03:58;16.80;99.90
27544;DHT22;17996;51.056;3.656;2022-10-18T00:06:24;16.80;99.90
27544;DHT22;17996;51.056;3.656;2022-10-18T00:08:50;16.80;99.90
27544;DHT22;17996;51.056;3.656;2022-10-18T00:11:15;16.80;99.90
27544;DHT22;17996;51.056;3.656;2022-10-18T00:13:41;16.80;99.90
27544;DHT22;17996;51.056;3.656;2022-10-18T00:16:11;16.80;99.90
27544;DHT22;17996;51.056;3.656;2022-10-18T00:18:37;16.80;99.90
27544;DHT22;17996;51.056;3.656;2022-10-18T00:21:05;16.80;99.90
27544;DHT22;17996;51.056;3.656;2022-10-18T00:23:32;16.80;99.90
27544;DHT22;17996;51.056;3.656;2022-10-18T00:26:04;16.80;99.90
27544;DHT22;17996;51.056;3.656;2022-10-18T00:28:31;16.70;99.90
27544;DHT22;17996;51.056;3.656;2022-10-18T00:30:57;16.70;99.90
27544;DHT22;17996;51.056;3.656;2022-10-18T00:33:32;16.80;99.90
27544;DHT22;17996;51.056;3.656;2022-10-18T00:35:59;16.70;99.90
27544;DHT22;17996;51.056;3.656;2022-10-18T00:38:25;16.80;99.90
27544;DHT22;17996;51.056;3.656;2022-10-18T00:40:50;16.80;99.90
27544;DHT22;17996;51.056;3.656;2022-10-18T00:43:17;16.70;99.90
27544;DHT22;17996;51.056;3.656;2022-10-18T00:45:43;16.80;99.90
27544;DHT22;17996;51.056;3.656;2022-10-18T00:48:09;16.80;99.90
27544;DHT22;17996;51.056;3.656;2022-10-18T00:50:35;16.70;99.90
27544;DHT22;17996;51.056;3.656;2022-10-18T00:53:07;16.70;99.90
27544;DHT22;17996;51.056;3.656;2022-10-18T00:55:33;16.70;99.90
27544;DHT22;17996;51.056;3.656;2022-10-18T00:57:59;16.60;99.90
27544;DHT22;17996;51.056;3.656;2022-10-18T01:00:26;16.60;99.90
27544;DHT22;17996;51.056;3.656;2022-10-18T01:02:52;16.60;99.90
27544;DHT22;17996;51.056;3.656;2022-10-18T01:05:18;16.70;99.90
27544;DHT22;17996;51.056;3.656;2022-10-18T01:16:38;16.70;99.90
27544;DHT22;17996;51.056;3.656;2022-10-18T01:19:20;16.70;99.90
27544;DHT22;17996;51.056;3.656;2022-10-18T01:21:58;16.70;99.90
27544;DHT22;17996;51.056;3.656;2022-10-18T01:24:58;16.80;99.90
27544;DHT22;17996;51.056;3.656;2022-10-18T01:27:32;16.70;99.90
27544;DHT22;17996;51.056;3.656;2022-10-18T01:32:55;16.70;99.90
27544;DHT22;17996;51.056;3.656;2022-10-18T01:35:28;16.70;99.90
27544;DHT22;17996;51.056;3.656;2022-10-18T01:37:59;16.90;99.90
27544;DHT22;17996;51.056;3.656;2022-10-18T01:40:27;16.70;99.90
27544;DHT22;17996;51.056;3.656;2022-10-18T01:42:54;16.60;99.90
27544;DHT22;17996;51.056;3.656;2022-10-18T01:45:23;16.60;99.90
27544;DHT22;17996;51.056;3.656;2022-10-18T01:47:50;16.50;99.90
27544;DHT22;17996;51.056;3.656;2022-10-18T01:50:28;16.50;99.90
27544;DHT22;17996;51.056;3.656;2022-10-18T01:52:54;16.50;99.90
27544;DHT22;17996;51.056;3.656;2022-10-18T01:55:48;16.50;99.90
27544;DHT22;17996;51.056;3.656;2022-10-18T01:58:37;16.50;99.90
27544;DHT22;17996;51.056;3.656;2022-10-18T02:03:55;16.50;99.90
27544;DHT22;17996;51.056;3.656;2022-10-18T02:06:27;16.60;99.90
27544;DHT22;17996;51.056;3.656;2022-10-18T02:09:01;16.50;99.90
27544;DHT22;17996;51.056;3.656;2022-10-18T02:11:28;16.60;99.90
27544;DHT22;17996;51.056;3.656;2022-10-18T02:14:10;16.60;99.90
27544;DHT22;17996;51.056;3.656;2022-10-18T02:16:37;16.60;99.90
27544;DHT22;17996;51.056;3.656;2022-10-18T02:21:56;16.60;99.90
27544;DHT22;17996;51.056;3.656;2022-10-18T02:24:26;16.60;99.90
27544;DHT22;17996;51.056;3.656;2022-10-18T02:26:56;16.60;99.90
27544;DHT22;17996;51.056;3.656;2022-10-18T02:29:21;16.70;99.90
27544;DHT22;17996;51.056;3.656;2022-10-18T02:31:54;16.60;99.90
27544;DHT22;17996;51.056;3.656;2022-10-18T02:34:31;16.60;99.90
27544;DHT22;17996;51.056;3.656;2022-10-18T02:36:59;16.60;99.90
27544;DHT22;17996;51.056;3.656;2022-10-18T02:39:35;16.70;99.90
27544;DHT22;17996;51.056;3.656;2022-10-18T02:42:03;16.70;99.90
27544;DHT22;17996;51.056;3.656;2022-10-18T02:44:36;16.70;99.90
27544;DHT22;17996;51.056;3.656;2022-10-18T02:47:04;16.70;99.90
27544;DHT22;17996;51.056;3.656;2022-10-18T02:49:29;16.70;99.90
27544;DHT22;17996;51.056;3.656;2022-10-18T02:51:55;16.70;99.90
27544;DHT22;17996;51.056;3.656;2022-10-18T02:54:22;16.70;99.90
27544;DHT22;17996;51.056;3.656;2022-10-18T02:56:48;16.70;99.90
27544;DHT22;17996;51.056;3.656;2022-10-18T02:59:13;16.70;99.90
27544;DHT22;17996;51.056;3.656;2022-10-18T03:01:40;16.70;99.90
27544;DHT22;17996;51.056;3.656;2022-10-18T03:04:05;16.70;99.90
27544;DHT22;17996;51.056;3.656;2022-10-18T03:06:32;16.70;99.90
27544;DHT22;17996;51.056;3.656;2022-10-18T03:08:57;16.70;99.90
27544;DHT22;17996;51.056;3.656;2022-10-18T03:11:23;16.60;99.90
27544;DHT22;17996;51.056;3.656;2022-10-18T03:13:49;16.70;99.90
27544;DHT22;17996;51.056;3.656;2022-10-18T03:16:15;16.60;99.90
27544;DHT22;17996;51.056;3.656;2022-10-18T03:18:41;16.60;99.90
27544;DHT22;17996;51.056;3.656;2022-10-18T03:21:07;16.60;99.90
27544;DHT22;17996;51.056;3.656;2022-10-18T03:23:34;16.60;99.90
27544;DHT22;17996;51.056;3.656;2022-10-18T03:26:00;16.60;99.90
27544;DHT22;17996;51.056;3.656;2022-10-18T03:28:25;16.60;99.90
27544;DHT22;17996;51.056;3.656;2022-10-18T03:30:51;16.60;99.90
27544;DHT22;17996;51.056;3.656;2022-10-18T03:33:17;16.60;99.90
27544;DHT22;17996;51.056;3.656;2022-10-18T03:35:43;16.60;99.90
27544;DHT22;17996;51.056;3.656;2022-10-18T03:38:09;16.60;99.90
27544;DHT22;17996;51.056;3.656;2022-10-18T03:40:35;16.60;99.90
27544;DHT22;17996;51.056;3.656;2022-10-18T03:43:01;16.60;99.90
27544;DHT22;17996;51.056;3.656;2022-10-18T03:45:27;16.60;99.90
27544;DHT22;17996;51.056;3.656;2022-10-18T03:47:52;16.70;99.90
27544;DHT22;17996;51.056;3.656;2022-10-18T03:50:18;16.60;99.90
27544;DHT22;17996;51.056;3.656;2022-10-18T03:52:44;16.60;99.90
27544;DHT22;17996;51.056;3.656;2022-10-18T03:55:09;16.60;99.90
27544;DHT22;17996;51.056;3.656;2022-10-18T03:57:35;16.50;99.90
27544;DHT22;17996;51.056;3.656;2022-10-18T04:00:01;16.50;99.90
27544;DHT22;17996;51.056;3.656;2022-10-18T04:02:26;16.50;99.90
27544;DHT22;17996;51.056;3.656;2022-10-18T04:04:52;16.50;99.90
27544;DHT22;17996;51.056;3.656;2022-10-18T04:07:18;16.50;99.90
27544;DHT22;17996;51.056;3.656;2022-10-18T04:09:43;16.40;99.90
27544;DHT22;17996;51.056;3.656;2022-10-18T04:12:09;16.40;99.90
27544;DHT22;17996;51.056;3.656;2022-10-18T04:14:35;16.40;99.90
27544;DHT22;17996;51.056;3.656;2022-10-18T04:17:00;16.30;99.90
27544;DHT22;17996;51.056;3.656;2022-10-18T04:19:27;16.30;99.90
27544;DHT22;17996;51.056;3.656;2022-10-18T04:21:52;16.30;99.90
27544;DHT22;17996;51.056;3.656;2022-10-18T04:24:18;16.20;99.90
27544;DHT22;17996;51.056;3.656;2022-10-18T04:26:44;16.20;99.90
27544;DHT22;17996;51.056;3.656;2022-10-18T04:29:11;16.10;99.90
27544;DHT22;17996;51.056;3.656;2022-10-18T04:31:36;16.10;99.90
27544;DHT22;17996;51.056;3.656;2022-10-18T04:34:02;16.00;99.90
27544;DHT22;17996;51.056;3.656;2022-10-18T04:36:29;15.90;99.90
27544;DHT22;17996;51.056;3.656;2022-10-18T04:38:55;15.90;99.90
27544;DHT22;17996;51.056;3.656;2022-10-18T04:41:21;15.70;99.90
27544;DHT22;17996;51.056;3.656;2022-10-18T04:43:47;15.60;99.90
27544;DHT22;17996;51.056;3.656;2022-10-18T04:46:12;15.60;99.90
27544;DHT22;17996;51.056;3.656;2022-10-18T04:48:38;15.60;99.90
27544;DHT22;17996;51.056;3.656;2022-10-18T04:51:04;15.60;99.90
27544;DHT22;17996;51.056;3.656;2022-10-18T04:53:29;15.60;99.90
27544;DHT22;17996;51.056;3.656;2022-10-18T04:55:55;15.60;99.90
27544;DHT22;17996;51.056;3.656;2022-10-18T04:58:21;15.60;99.90
27544;DHT22;17996;51.056;3.656;2022-10-18T05:00:46;15.60;99.90
27544;DHT22;17996;51.056;3.656;2022-10-18T05:03:13;15.60;99.90
27544;DHT22;17996;51.056;3.656;2022-10-18T05:05:39;15.60;99.90
27544;DHT22;17996;51.056;3.656;2022-10-18T05:08:05;15.70;99.90
27544;DHT22;17996;51.056;3.656;2022-10-18T05:10:31;15.50;99.90
27544;DHT22;17996;51.056;3.656;2022-10-18T05:12:56;15.50;99.90
27544;DHT22;17996;51.056;3.656;2022-10-18T05:15:22;15.50;99.90
27544;DHT22;17996;51.056;3.656;2022-10-18T05:17:48;15.40;99.90
27544;DHT22;17996;51.056;3.656;2022-10-18T05:20:14;15.40;99.90
27544;DHT22;17996;51.056;3.656;2022-10-18T05:22:39;15.40;99.90
27544;DHT22;17996;51.056;3.656;2022-10-18T05:25:05;15.30;99.90
27544;DHT22;17996;51.056;3.656;2022-10-18T05:27:32;15.30;99.90
27544;DHT22;17996;51.056;3.656;2022-10-18T05:29:57;15.30;99.90
27544;DHT22;17996;51.056;3.656;2022-10-18T05:32:23;15.20;99.90
27544;DHT22;17996;51.056;3.656;2022-10-18T05:34:48;15.20;99.90
27544;DHT22;17996;51.056;3.656;2022-10-18T05:37:14;15.10;99.90
27544;DHT22;17996;51.056;3.656;2022-10-18T05:39:40;15.00;99.90
27544;DHT22;17996;51.056;3.656;2022-10-18T05:42:05;15.10;99.90
27544;DHT22;17996;51.056;3.656;2022-10-18T05:44:31;15.00;99.90
27544;DHT22;17996;51.056;3.656;2022-10-18T05:46:57;15.00;99.90
27544;DHT22;17996;51.056;3.656;2022-10-18T05:49:22;15.00;99.90
27544;DHT22;17996;51.056;3.656;2022-10-18T05:51:48;15.00;99.90
27544;DHT22;17996;51.056;3.656;2022-10-18T05:54:14;15.00;99.90
27544;DHT22;17996;51.056;3.656;2022-10-18T05:56:39;15.00;99.90
27544;DHT22;17996;51.056;3.656;2022-10-18T05:59:05;14.90;99.90
27544;DHT22;17996;51.056;3.656;2022-10-18T06:01:38;14.90;99.90
27544;DHT22;17996;51.056;3.656;2022-10-18T06:04:04;14.80;99.90
27544;DHT22;17996;51.056;3.656;2022-10-18T06:06:30;14.80;99.90
27544;DHT22;17996;51.056;3.656;2022-10-18T06:08:56;14.80;99.90
27544;DHT22;17996;51.056;3.656;2022-10-18T06:11:22;14.70;99.90
27544;DHT22;17996;51.056;3.656;2022-10-18T06:13:49;14.80;99.90
27544;DHT22;17996;51.056;3.656;2022-10-18T06:16:20;14.80;99.90
27544;DHT22;17996;51.056;3.656;2022-10-18T06:18:48;14.60;99.90
27544;DHT22;17996;51.056;3.656;2022-10-18T06:21:15;14.60;99.90
27544;DHT22;17996;51.056;3.656;2022-10-18T06:23:41;14.60;99.90
27544;DHT22;17996;51.056;3.656;2022-10-18T06:26:09;14.60;99.90
27544;DHT22;17996;51.056;3.656;2022-10-18T06:28:36;14.70;99.90
27544;DHT22;17996;51.056;3.656;2022-10-18T06:31:03;14.50;99.90
27544;DHT22;17996;51.056;3.656;2022-10-18T06:33:30;14.60;99.90
27544;DHT22;17996;51.056;3.656;2022-10-18T06:36:01;14.60;99.90
27544;DHT22;17996;51.056;3.656;2022-10-18T06:38:28;14.60;99.90
27544;DHT22;17996;51.056;3.656;2022-10-18T06:40:55;14.60;99.90
27544;DHT22;17996;51.056;3.656;2022-10-18T06:43:21;14.50;99.90
27544;DHT22;17996;51.056;3.656;2022-10-18T06:45:48;14.60;99.90
27544;DHT22;17996;51.056;3.656;2022-10-18T06:48:14;14.50;99.90
27544;DHT22;17996;51.056;3.656;2022-10-18T06:50:40;14.50;99.90
27544;DHT22;17996;51.056;3.656;2022-10-18T06:53:06;14.60;99.90
27544;DHT22;17996;51.056;3.656;2022-10-18T06:55:33;14.60;99.90
27544;DHT22;17996;51.056;3.656;2022-10-18T06:58:00;14.50;99.90
27544;DHT22;17996;51.056;3.656;2022-10-18T07:00:26;14.60;99.90
27544;DHT22;17996;51.056;3.656;2022-10-18T07:02:51;14.60;99.90
27544;DHT22;17996;51.056;3.656;2022-10-18T07:05:17;14.60;99.90
27544;DHT22;17996;51.056;3.656;2022-10-18T07:07:43;14.60;99.90
27544;DHT22;17996;51.056;3.656;2022-10-18T07:10:09;14.60;99.90
27544;DHT22;17996;51.056;3.656;2022-10-18T07:12:34;14.70;99.90
27544;DHT22;17996;51.056;3.656;2022-10-18T07:15:00;14.60;99.90
27544;DHT22;17996;51.056;3.656;2022-10-18T07:17:26;14.60;99.90
27544;DHT22;17996;51.056;3.656;2022-10-18T07:19:52;14.60;99.90
27544;DHT22;17996;51.056;3.656;2022-10-18T07:22:17;14.60;99.90
27544;DHT22;17996;51.056;3.656;2022-10-18T07:24:43;14.70;99.90
27544;DHT22;17996;51.056;3.656;2022-10-18T07:27:09;14.70;99.90
27544;DHT22;17996;51.056;3.656;2022-10-18T07:29:34;14.70;99.90
27544;DHT22;17996;51.056;3.656;2022-10-18T07:32:03;14.70;99.90
27544;DHT22;17996;51.056;3.656;2022-10-18T07:34:29;14.80;99.90
27544;DHT22;17996;51.056;3.656;2022-10-18T07:36:54;14.80;99.90
27544;DHT22;17996;51.056;3.656;2022-10-18T07:39:20;14.80;99.90
27544;DHT22;17996;51.056;3.656;2022-10-18T07:41:46;14.80;99.90
27544;DHT22;17996;51.056;3.656;2022-10-18T07:44:11;14.80;99.90
27544;DHT22;17996;51.056;3.656;2022-10-18T07:46:37;14.90;99.90
27544;DHT22;17996;51.056;3.656;2022-10-18T07:49:03;15.00;99.90
27544;DHT22;17996;51.056;3.656;2022-10-18T07:51:29;15.00;99.90
27544;DHT22;17996;51.056;3.656;2022-10-18T07:53:57;15.00;99.90
27544;DHT22;17996;51.056;3.656;2022-10-18T07:56:23;15.00;99.90
27544;DHT22;17996;51.056;3.656;2022-10-18T07:58:51;15.00;99.90
27544;DHT22;17996;51.056;3.656;2022-10-18T08:01:19;15.00;99.90
27544;DHT22;17996;51.056;3.656;2022-10-18T08:03:45;15.00;99.90
27544;DHT22;17996;51.056;3.656;2022-10-18T08:06:12;15.00;99.90
27544;DHT22;17996;51.056;3.656;2022-10-18T08:08:39;15.00;99.90
27544;DHT22;17996;51.056;3.656;2022-10-18T08:11:08;15.10;99.90
27544;DHT22;17996;51.056;3.656;2022-10-18T08:13:35;15.10;99.90
27544;DHT22;17996;51.056;3.656;2022-10-18T08:16:11;15.20;99.90
27544;DHT22;17996;51.056;3.656;2022-10-18T08:18:38;15.20;99.90
27544;DHT22;17996;51.056;3.656;2022-10-18T08:21:05;15.30;99.90
27544;DHT22;17996;51.056;3.656;2022-10-18T08:23:32;15.30;99.90
27544;DHT22;17996;51.056;3.656;2022-10-18T08:26:08;15.40;99.90
27544;DHT22;17996;51.056;3.656;2022-10-18T08:28:34;15.40;99.90
27544;DHT22;17996;51.056;3.656;2022-10-18T08:31:05;15.40;99.90
27544;DHT22;17996;51.056;3.656;2022-10-18T08:33:32;15.50;99.90
27544;DHT22;17996;51.056;3.656;2022-10-18T08:36:01;15.50;99.90
27544;DHT22;17996;51.056;3.656;2022-10-18T08:38:31;15.60;99.90
27544;DHT22;17996;51.056;3.656;2022-10-18T08:44:12;15.70;99.90
27544;DHT22;17996;51.056;3.656;2022-10-18T08:46:43;15.70;99.90
27544;DHT22;17996;51.056;3.656;2022-10-18T08:49:21;15.70;99.90
27544;DHT22;17996;51.056;3.656;2022-10-18T08:51:50;15.70;99.90
27544;DHT22;17996;51.056;3.656;2022-10-18T08:54:38;15.70;99.90
27544;DHT22;17996;51.056;3.656;2022-10-18T08:57:14;15.80;99.90
27544;DHT22;17996;51.056;3.656;2022-10-18T08:59:41;15.80;99.90
27544;DHT22;17996;51.056;3.656;2022-10-18T09:05:14;15.90;99.90
27544;DHT22;17996;51.056;3.656;2022-10-18T09:16:01;16.00;99.90
27544;DHT22;17996;51.056;3.656;2022-10-18T09:21:00;16.10;99.90
27544;DHT22;17996;51.056;3.656;2022-10-18T09:26:19;16.20;99.90
27544;DHT22;17996;51.056;3.656;2022-10-18T09:32:09;16.20;99.90
27544;DHT22;17996;51.056;3.656;2022-10-18T09:34:57;16.20;99.90
27544;DHT22;17996;51.056;3.656;2022-10-18T09:37:28;16.20;99.90
27544;DHT22;17996;51.056;3.656;2022-10-18T09:40:02;16.20;99.90
27544;DHT22;17996;51.056;3.656;2022-10-18T09:42:33;16.30;99.90
27544;DHT22;17996;51.056;3.656;2022-10-18T09:45:05;16.30;99.90
27544;DHT22;17996;51.056;3.656;2022-10-18T09:47:37;16.40;99.90
27544;DHT22;17996;51.056;3.656;2022-10-18T09:51:06;16.60;99.90
27544;DHT22;17996;51.056;3.656;2022-10-18T09:56:00;16.50;99.90
27544;DHT22;17996;51.056;3.656;2022-10-18T09:58:39;16.50;99.90
27544;DHT22;17996;51.056;3.656;2022-10-18T10:01:06;16.50;99.90
27544;DHT22;17996;51.056;3.656;2022-10-18T10:03:33;16.60;99.90
27544;DHT22;17996;51.056;3.656;2022-10-18T10:06:26;16.70;99.90
27544;DHT22;17996;51.056;3.656;2022-10-18T10:09:12;16.70;99.90
27544;DHT22;17996;51.056;3.656;2022-10-18T10:11:46;16.70;99.90
27544;DHT22;17996;51.056;3.656;2022-10-18T10:14:42;16.70;99.90
27544;DHT22;17996;51.056;3.656;2022-10-18T10:17:24;16.80;99.90
27544;DHT22;17996;51.056;3.656;2022-10-18T10:20:04;16.80;99.90
27544;DHT22;17996;51.056;3.656;2022-10-18T10:22:39;17.00;99.90
27544;DHT22;17996;51.056;3.656;2022-10-18T10:25:06;17.10;99.90
27544;DHT22;17996;51.056;3.656;2022-10-18T10:27:44;17.30;99.90
27544;DHT22;17996;51.056;3.656;2022-10-18T10:30:32;17.40;99.90
27544;DHT22;17996;51.056;3.656;2022-10-18T10:32:58;17.40;99.90
27544;DHT22;17996;51.056;3.656;2022-10-18T10:35:35;17.40;99.90
27544;DHT22;17996;51.056;3.656;2022-10-18T10:38:02;17.50;99.90
27544;DHT22;17996;51.056;3.656;2022-10-18T10:40:33;17.50;99.90
27544;DHT22;17996;51.056;3.656;2022-10-18T10:43:13;17.70;99.90
27544;DHT22;17996;51.056;3.656;2022-10-18T10:46:05;17.70;99.90
27544;DHT22;17996;51.056;3.656;2022-10-18T10:48:38;17.80;99.90
27544;DHT22;17996;51.056;3.656;2022-10-18T10:51:08;17.80;99.90
27544;DHT22;17996;51.056;3.656;2022-10-18T10:53:35;17.90;99.90
27544;DHT22;17996;51.056;3.656;2022-10-18T10:56:03;17.90;99.90
27544;DHT22;17996;51.056;3.656;2022-10-18T10:58:36;17.90;99.90
27544;DHT22;17996;51.056;3.656;2022-10-18T11:01:24;17.90;99.90
27544;DHT22;17996;51.056;3.656;2022-10-18T11:03:53;17.90;99.90
27544;DHT22;17996;51.056;3.656;2022-10-18T11:06:48;17.90;99.90
27544;DHT22;17996;51.056;3.656;2022-10-18T11:10:05;17.90;99.90
27544;DHT22;17996;51.056;3.656;2022-10-18T11:14:44;17.80;99.90
27544;DHT22;17996;51.056;3.656;2022-10-18T11:22:39;17.80;99.90
27544;DHT22;17996;51.056;3.656;2022-10-18T11:25:12;17.80;99.90
27544;DHT22;17996;51.056;3.656;2022-10-18T11:28:03;17.70;99.90
27544;DHT22;17996;51.056;3.656;2022-10-18T11:33:26;17.80;99.90
27544;DHT22;17996;51.056;3.656;2022-10-18T11:35:57;17.80;99.90
27544;DHT22;17996;51.056;3.656;2022-10-18T11:41:36;17.80;99.90
27544;DHT22;17996;51.056;3.656;2022-10-18T11:46:50;17.80;99.90
27544;DHT22;17996;51.056;3.656;2022-10-18T11:52:10;17.90;99.90
27544;DHT22;17996;51.056;3.656;2022-10-18T12:00:23;17.90;99.90
27544;DHT22;17996;51.056;3.656;2022-10-18T12:05:40;18.00;99.90
27544;DHT22;17996;51.056;3.656;2022-10-18T12:08:20;18.00;99.90
27544;DHT22;17996;51.056;3.656;2022-10-18T12:10:53;18.00;99.90
27544;DHT22;17996;51.056;3.656;2022-10-18T12:13:37;18.10;99.90
27544;DHT22;17996;51.056;3.656;2022-10-18T12:16:06;18.10;99.90
27544;DHT22;17996;51.056;3.656;2022-10-18T12:18:33;18.20;99.90
27544;DHT22;17996;51.056;3.656;2022-10-18T12:21:00;18.10;99.90
27544;DHT22;17996;51.056;3.656;2022-10-18T12:26:04;18.20;99.90
27544;DHT22;17996;51.056;3.656;2022-10-18T12:31:01;18.20;99.90
27544;DHT22;17996;51.056;3.656;2022-10-18T12:33:28;18.20;99.90
27544;DHT22;17996;51.056;3.656;2022-10-18T12:36:07;18.20;99.90
27544;DHT22;17996;51.056;3.656;2022-10-18T12:38:38;18.10;99.90
27544;DHT22;17996;51.056;3.656;2022-10-18T12:41:05;18.20;99.90
27544;DHT22;17996;51.056;3.656;2022-10-18T12:43:32;18.30;99.90
27544;DHT22;17996;51.056;3.656;2022-10-18T12:46:03;18.30;99.90
27544;DHT22;17996;51.056;3.656;2022-10-18T12:48:42;18.40;99.90
27544;DHT22;17996;51.056;3.656;2022-10-18T12:51:17;18.40;99.90
27544;DHT22;17996;51.056;3.656;2022-10-18T13:15:45;18.70;99.90
27544;DHT22;17996;51.056;3.656;2022-10-18T13:18:41;18.70;99.90
27544;DHT22;17996;51.056;3.656;2022-10-18T13:21:21;18.60;99.90
27544;DHT22;17996;51.056;3.656;2022-10-18T13:24:20;18.60;99.90
27544;DHT22;17996;51.056;3.656;2022-10-18T13:26:57;18.70;99.90
27544;DHT22;17996;51.056;3.656;2022-10-18T13:34:59;18.70;99.90
27544;DHT22;17996;51.056;3.656;2022-10-18T13:37:26;18.70;99.90
27544;DHT22;17996;51.056;3.656;2022-10-18T13:40:21;18.70;99.90
27544;DHT22;17996;51.056;3.656;2022-10-18T13:42:48;18.70;99.90
27544;DHT22;17996;51.056;3.656;2022-10-18T13:47:56;18.80;99.90
27544;DHT22;17996;51.056;3.656;2022-10-18T13:50:30;18.80;99.90
27544;DHT22;17996;51.056;3.656;2022-10-18T13:53:57;18.90;99.90
27544;DHT22;17996;51.056;3.656;2022-10-18T13:59:54;18.90;99.90
27544;DHT22;17996;51.056;3.656;2022-10-18T14:02:47;18.90;99.90
27544;DHT22;17996;51.056;3.656;2022-10-18T14:05:50;18.90;99.90
27544;DHT22;17996;51.056;3.656;2022-10-18T14:11:58;19.00;99.90
27544;DHT22;17996;51.056;3.656;2022-10-18T14:14:12;19.00;99.90
27544;DHT22;17996;51.056;3.656;2022-10-18T14:22:24;19.00;99.90
27544;DHT22;17996;51.056;3.656;2022-10-18T14:24:55;19.00;99.90
27544;DHT22;17996;51.056;3.656;2022-10-18T14:27:30;19.00;99.90
27544;DHT22;17996;51.056;3.656;2022-10-18T14:32:35;19.20;99.90
27544;DHT22;17996;51.056;3.656;2022-10-18T14:35:00;19.20;99.90
27544;DHT22;17996;51.056;3.656;2022-10-18T14:37:32;19.30;99.90
27544;DHT22;17996;51.056;3.656;2022-10-18T14:39:58;19.40;99.90
27544;DHT22;17996;51.056;3.656;2022-10-18T14:42:25;19.30;99.90
27544;DHT22;17996;51.056;3.656;2022-10-18T14:44:52;19.40;99.90
27544;DHT22;17996;51.056;3.656;2022-10-18T14:47:26;19.50;99.90
27544;DHT22;17996;51.056;3.656;2022-10-18T14:49:53;19.60;99.90
27544;DHT22;17996;51.056;3.656;2022-10-18T14:52:23;19.60;99.90
27544;DHT22;17996;51.056;3.656;2022-10-18T14:54:49;19.70;99.90
27544;DHT22;17996;51.056;3.656;2022-10-18T14:57:22;19.70;99.90
27544;DHT22;17996;51.056;3.656;2022-10-18T14:59:53;19.80;99.90
27544;DHT22;17996;51.056;3.656;2022-10-18T15:02:24;19.70;99.90
27544;DHT22;17996;51.056;3.656;2022-10-18T15:05:23;19.70;99.90
27544;DHT22;17996;51.056;3.656;2022-10-18T15:07:51;19.60;99.90
27544;DHT22;17996;51.056;3.656;2022-10-18T15:10:25;19.50;99.90
27544;DHT22;17996;51.056;3.656;2022-10-18T15:12:52;19.60;99.90
27544;DHT22;17996;51.056;3.656;2022-10-18T15:15:23;19.60;99.90
27544;DHT22;17996;51.056;3.656;2022-10-18T15:17:51;19.50;99.90
27544;DHT22;17996;51.056;3.656;2022-10-18T15:22:45;19.50;99.90
27544;DHT22;17996;51.056;3.656;2022-10-18T15:25:14;19.40;99.90
27544;DHT22;17996;51.056;3.656;2022-10-18T15:27:40;19.60;99.90
27544;DHT22;17996;51.056;3.656;2022-10-18T15:30:23;19.50;99.90
27544;DHT22;17996;51.056;3.656;2022-10-18T15:32:54;19.60;99.90
27544;DHT22;17996;51.056;3.656;2022-10-18T15:35:33;19.60;99.90
27544;DHT22;17996;51.056;3.656;2022-10-18T15:40:46;20.00;99.90
27544;DHT22;17996;51.056;3.656;2022-10-18T15:46:00;20.00;99.90
27544;DHT22;17996;51.056;3.656;2022-10-18T15:48:37;19.90;99.90
27544;DHT22;17996;51.056;3.656;2022-10-18T15:53:53;19.70;99.90
27544;DHT22;17996;51.056;3.656;2022-10-18T15:56:34;19.60;99.90
27544;DHT22;17996;51.056;3.656;2022-10-18T15:59:03;19.60;99.90
27544;DHT22;17996;51.056;3.656;2022-10-18T16:01:40;19.40;99.90
27544;DHT22;17996;51.056;3.656;2022-10-18T16:04:16;19.20;99.90
27544;DHT22;17996;51.056;3.656;2022-10-18T16:06:42;19.10;99.90
27544;DHT22;17996;51.056;3.656;2022-10-18T16:09:12;18.90;99.90
27544;DHT22;17996;51.056;3.656;2022-10-18T16:11:39;18.80;99.90
27544;DHT22;17996;51.056;3.656;2022-10-18T16:14:05;18.70;99.90
27544;DHT22;17996;51.056;3.656;2022-10-18T16:16:31;18.50;99.90
27544;DHT22;17996;51.056;3.656;2022-10-18T16:18:57;18.40;99.90
27544;DHT22;17996;51.056;3.656;2022-10-18T16:21:30;18.30;99.90
27544;DHT22;17996;51.056;3.656;2022-10-18T16:23:56;18.20;99.90
27544;DHT22;17996;51.056;3.656;2022-10-18T16:26:22;18.00;99.90
27544;DHT22;17996;51.056;3.656;2022-10-18T16:28:49;18.00;99.90
27544;DHT22;17996;51.056;3.656;2022-10-18T16:31:18;17.90;99.90
27544;DHT22;17996;51.056;3.656;2022-10-18T16:33:44;17.80;99.90
27544;DHT22;17996;51.056;3.656;2022-10-18T16:36:15;17.70;99.90
27544;DHT22;17996;51.056;3.656;2022-10-18T16:38:41;17.60;99.90
27544;DHT22;17996;51.056;3.656;2022-10-18T16:41:08;17.50;99.90
27544;DHT22;17996;51.056;3.656;2022-10-18T16:43:34;17.50;99.90
27544;DHT22;17996;51.056;3.656;2022-10-18T16:46:01;17.40;99.90
27544;DHT22;17996;51.056;3.656;2022-10-18T16:48:27;17.40;99.90
27544;DHT22;17996;51.056;3.656;2022-10-18T16:50:54;17.30;99.90
27544;DHT22;17996;51.056;3.656;2022-10-18T16:53:21;17.30;99.90
27544;DHT22;17996;51.056;3.656;2022-10-18T16:55:58;17.20;99.90
27544;DHT22;17996;51.056;3.656;2022-10-18T16:58:26;17.10;99.90
27544;DHT22;17996;51.056;3.656;2022-10-18T17:00:52;17.00;99.90
27544;DHT22;17996;51.056;3.656;2022-10-18T17:03:18;17.00;99.90
27544;DHT22;17996;51.056;3.656;2022-10-18T17:05:44;16.90;99.90
27544;DHT22;17996;51.056;3.656;2022-10-18T17:08:17;16.80;99.90
27544;DHT22;17996;51.056;3.656;2022-10-18T17:10:43;16.80;99.90
27544;DHT22;17996;51.056;3.656;2022-10-18T17:13:09;16.70;99.90
27544;DHT22;17996;51.056;3.656;2022-10-18T17:15:34;16.70;99.90
27544;DHT22;17996;51.056;3.656;2022-10-18T17:18:00;16.70;99.90
27544;DHT22;17996;51.056;3.656;2022-10-18T17:20:29;16.60;99.90
27544;DHT22;17996;51.056;3.656;2022-10-18T17:22:54;16.60;99.90
27544;DHT22;17996;51.056;3.656;2022-10-18T17:25:20;16.50;99.90
27544;DHT22;17996;51.056;3.656;2022-10-18T17:27:46;16.50;99.90
27544;DHT22;17996;51.056;3.656;2022-10-18T17:30:13;16.40;99.90
27544;DHT22;17996;51.056;3.656;2022-10-18T17:32:39;16.40;99.90
27544;DHT22;17996;51.056;3.656;2022-10-18T17:35:09;16.20;99.90
27544;DHT22;17996;51.056;3.656;2022-10-18T17:37:35;16.20;99.90
27544;DHT22;17996;51.056;3.656;2022-10-18T17:40:03;16.30;99.90
27544;DHT22;17996;51.056;3.656;2022-10-18T17:42:29;16.20;99.90
27544;DHT22;17996;51.056;3.656;2022-10-18T17:44:55;16.20;99.90
27544;DHT22;17996;51.056;3.656;2022-10-18T17:47:20;16.10;99.90
27544;DHT22;17996;51.056;3.656;2022-10-18T17:49:46;16.10;99.90
27544;DHT22;17996;51.056;3.656;2022-10-18T17:52:12;16.10;99.90
27544;DHT22;17996;51.056;3.656;2022-10-18T17:54:37;16.00;99.90
27544;DHT22;17996;51.056;3.656;2022-10-18T17:57:03;16.00;99.90
27544;DHT22;17996;51.056;3.656;2022-10-18T17:59:29;16.00;99.90